sensor_id;sensor_type;location;lat;lon;timestamp;temperature;humidity
23371;DHT22;11858;51.056;3.712;2023-08-20T00:00:39;20.60;99.90
23371;DHT22;11858;51.056;3.712;2023-08-20T00:03:11;20.50;99.90
23371;DHT22;11858;51.056;3.712;2023-08-20T00:05:38;20.60;99.90
23371;DHT22;11858;51.056;3.712;2023-08-20T00:08:04;20.60;99.90
23371;DHT22;11858;51.056;3.712;2023-08-20T00:10:30;20.60;99.90
23371;DHT22;11858;51.056;3.712;2023-08-20T00:12:56;20.60;99.90
23371;DHT22;11858;51.056;3.712;2023-08-20T00:15:22;20.70;99.90
23371;DHT22;11858;51.056;3.712;2023-08-20T00:17:52;20.60;99.90
23371;DHT22;11858;51.056;3.712;2023-08-20T00:20:19;20.70;99.90
23371;DHT22;11858;51.056;3.712;2023-08-20T00:22:45;20.70;99.90
23371;DHT22;11858;51.056;3.712;2023-08-20T00:25:12;20.70;99.90
23371;DHT22;11858;51.056;3.712;2023-08-20T00:27:39;20.70;99.90
23371;DHT22;11858;51.056;3.712;2023-08-20T00:30:05;20.70;99.90
23371;DHT22;11858;51.056;3.712;2023-08-20T00:32:31;20.80;99.90
23371;DHT22;11858;51.056;3.712;2023-08-20T00:34:57;20.70;99.90
23371;DHT22;11858;51.056;3.712;2023-08-20T00:37:22;20.70;99.90
23371;DHT22;11858;51.056;3.712;2023-08-20T00:39:48;20.70;99.90
23371;DHT22;11858;51.056;3.712;2023-08-20T00:42:14;20.70;99.90
23371;DHT22;11858;51.056;3.712;2023-08-20T00:44:40;20.80;99.90
23371;DHT22;11858;51.056;3.712;2023-08-20T00:47:13;20.80;99.90
23371;DHT22;11858;51.056;3.712;2023-08-20T00:49:39;20.80;99.90
23371;DHT22;11858;51.056;3.712;2023-08-20T00:52:08;20.70;99.90
23371;DHT22;11858;51.056;3.712;2023-08-20T00:54:35;20.60;99.90
23371;DHT22;11858;51.056;3.712;2023-08-20T00:57:02;20.60;99.90
23371;DHT22;11858;51.056;3.712;2023-08-20T00:59:30;20.60;99.90
23371;DHT22;11858;51.056;3.712;2023-08-20T01:01:57;20.50;99.90
23371;DHT22;11858;51.056;3.712;2023-08-20T01:04:23;20.40;99.90
23371;DHT22;11858;51.056;3.712;2023-08-20T01:06:56;20.40;99.90
23371;DHT22;11858;51.056;3.712;2023-08-20T01:09:34;20.30;99.90
23371;DHT22;11858;51.056;3.712;2023-08-20T01:12:03;20.20;99.90
23371;DHT22;11858;51.056;3.712;2023-08-20T01:14:30;20.10;99.90
23371;DHT22;11858;51.056;3.712;2023-08-20T01:16:56;20.10;99.90
23371;DHT22;11858;51.056;3.712;2023-08-20T01:19:22;20.10;99.90
23371;DHT22;11858;51.056;3.712;2023-08-20T01:30:11;20.10;99.90
23371;DHT22;11858;51.056;3.712;2023-08-20T01:32:38;20.10;99.90
23371;DHT22;11858;51.056;3.712;2023-08-20T01:35:13;20.20;99.90
23371;DHT22;11858;51.056;3.712;2023-08-20T01:37:40;20.20;99.90
23371;DHT22;11858;51.056;3.712;2023-08-20T01:40:07;20.20;99.90
23371;DHT22;11858;51.056;3.712;2023-08-20T01:42:35;20.20;99.90
23371;DHT22;11858;51.056;3.712;2023-08-20T01:45:00;20.10;99.90
23371;DHT22;11858;51.056;3.712;2023-08-20T01:47:26;19.90;99.90
23371;DHT22;11858;51.056;3.712;2023-08-20T01:49:51;19.80;99.90
23371;DHT22;11858;51.056;3.712;2023-08-20T01:52:17;19.80;99.90
23371;DHT22;11858;51.056;3.712;2023-08-20T01:54:43;19.80;99.90
23371;DHT22;11858;51.056;3.712;2023-08-20T01:57:08;19.80;99.90
23371;DHT22;11858;51.056;3.712;2023-08-20T01:59:34;19.70;99.90
23371;DHT22;11858;51.056;3.712;2023-08-20T02:02:00;19.60;99.90
23371;DHT22;11858;51.056;3.712;2023-08-20T02:04:26;19.60;99.90
23371;DHT22;11858;51.056;3.712;2023-08-20T02:06:51;19.50;99.90
23371;DHT22;11858;51.056;3.712;2023-08-20T02:09:17;19.40;99.90
23371;DHT22;11858;51.056;3.712;2023-08-20T02:11:45;19.40;99.90
23371;DHT22;11858;51.056;3.712;2023-08-20T02:14:10;19.40;99.90
23371;DHT22;11858;51.056;3.712;2023-08-20T02:16:36;19.30;99.90
23371;DHT22;11858;51.056;3.712;2023-08-20T02:19:02;19.20;99.90
23371;DHT22;11858;51.056;3.712;2023-08-20T02:21:29;19.20;99.90
23371;DHT22;11858;51.056;3.712;2023-08-20T02:23:54;19.10;99.90
23371;DHT22;11858;51.056;3.712;2023-08-20T02:26:20;19.00;99.90
23371;DHT22;11858;51.056;3.712;2023-08-20T02:28:46;18.90;99.90
23371;DHT22;11858;51.056;3.712;2023-08-20T02:31:11;18.90;99.90
23371;DHT22;11858;51.056;3.712;2023-08-20T02:33:37;18.90;99.90
23371;DHT22;11858;51.056;3.712;2023-08-20T02:36:03;18.80;99.90
23371;DHT22;11858;51.056;3.712;2023-08-20T02:38:29;18.70;99.90
23371;DHT22;11858;51.056;3.712;2023-08-20T02:40:55;18.70;99.90
23371;DHT22;11858;51.056;3.712;2023-08-20T02:43:21;18.70;99.90
23371;DHT22;11858;51.056;3.712;2023-08-20T02:45:47;18.80;99.90
23371;DHT22;11858;51.056;3.712;2023-08-20T02:48:13;18.90;99.90
23371;DHT22;11858;51.056;3.712;2023-08-20T02:50:39;19.00;99.90
23371;DHT22;11858;51.056;3.712;2023-08-20T02:53:05;19.00;99.90
23371;DHT22;11858;51.056;3.712;2023-08-20T02:55:31;19.10;99.90
23371;DHT22;11858;51.056;3.712;2023-08-20T02:57:57;19.10;99.90
23371;DHT22;11858;51.056;3.712;2023-08-20T03:00:23;19.30;99.90
23371;DHT22;11858;51.056;3.712;2023-08-20T03:02:49;19.30;99.90
23371;DHT22;11858;51.056;3.712;2023-08-20T03:05:15;19.30;99.90
23371;DHT22;11858;51.056;3.712;2023-08-20T03:07:40;19.30;99.90
23371;DHT22;11858;51.056;3.712;2023-08-20T03:10:06;19.40;99.90
23371;DHT22;11858;51.056;3.712;2023-08-20T03:12:32;19.30;99.90
23371;DHT22;11858;51.056;3.712;2023-08-20T03:14:59;19.30;99.90
23371;DHT22;11858;51.056;3.712;2023-08-20T03:17:25;19.40;99.90
23371;DHT22;11858;51.056;3.712;2023-08-20T03:19:58;19.40;99.90
23371;DHT22;11858;51.056;3.712;2023-08-20T03:22:25;19.40;99.90
23371;DHT22;11858;51.056;3.712;2023-08-20T03:24:51;19.30;99.90
23371;DHT22;11858;51.056;3.712;2023-08-20T03:27:17;19.20;99.90
23371;DHT22;11858;51.056;3.712;2023-08-20T03:29:43;19.30;99.90
23371;DHT22;11858;51.056;3.712;2023-08-20T03:32:09;19.20;99.90
23371;DHT22;11858;51.056;3.712;2023-08-20T03:34:35;19.10;99.90
23371;DHT22;11858;51.056;3.712;2023-08-20T03:37:01;19.10;99.90
23371;DHT22;11858;51.056;3.712;2023-08-20T03:39:27;19.10;99.90
23371;DHT22;11858;51.056;3.712;2023-08-20T03:41:52;19.10;99.90
23371;DHT22;11858;51.056;3.712;2023-08-20T03:44:18;19.10;99.90
23371;DHT22;11858;51.056;3.712;2023-08-20T03:46:44;19.10;99.90
23371;DHT22;11858;51.056;3.712;2023-08-20T03:49:10;19.10;99.90
23371;DHT22;11858;51.056;3.712;2023-08-20T03:51:36;19.10;99.90
23371;DHT22;11858;51.056;3.712;2023-08-20T03:54:02;19.00;99.90
23371;DHT22;11858;51.056;3.712;2023-08-20T03:56:28;19.10;99.90
23371;DHT22;11858;51.056;3.712;2023-08-20T03:58:54;18.90;99.90
23371;DHT22;11858;51.056;3.712;2023-08-20T04:01:20;18.80;99.90
23371;DHT22;11858;51.056;3.712;2023-08-20T04:03:48;18.70;99.90
23371;DHT22;11858;51.056;3.712;2023-08-20T04:06:14;18.60;99.90
23371;DHT22;11858;51.056;3.712;2023-08-20T04:08:40;18.60;99.90
23371;DHT22;11858;51.056;3.712;2023-08-20T04:11:06;18.60;99.90
23371;DHT22;11858;51.056;3.712;2023-08-20T04:13:31;18.50;99.90
23371;DHT22;11858;51.056;3.712;2023-08-20T04:15:57;18.40;99.90
23371;DHT22;11858;51.056;3.712;2023-08-20T04:18:23;18.30;99.90
23371;DHT22;11858;51.056;3.712;2023-08-20T04:20:52;18.30;99.90
23371;DHT22;11858;51.056;3.712;2023-08-20T04:23:19;18.20;99.90
23371;DHT22;11858;51.056;3.712;2023-08-20T04:25:45;18.10;99.90
23371;DHT22;11858;51.056;3.712;2023-08-20T04:28:13;18.10;99.90
23371;DHT22;11858;51.056;3.712;2023-08-20T04:30:39;18.10;99.90
23371;DHT22;11858;51.056;3.712;2023-08-20T04:33:05;18.10;99.90
23371;DHT22;11858;51.056;3.712;2023-08-20T04:35:31;18.30;99.90
23371;DHT22;11858;51.056;3.712;2023-08-20T04:37:57;18.30;99.90
23371;DHT22;11858;51.056;3.712;2023-08-20T04:40:22;18.30;99.90
23371;DHT22;11858;51.056;3.712;2023-08-20T04:42:48;18.20;99.90
23371;DHT22;11858;51.056;3.712;2023-08-20T04:45:14;18.30;99.90
23371;DHT22;11858;51.056;3.712;2023-08-20T04:47:42;18.20;99.90
23371;DHT22;11858;51.056;3.712;2023-08-20T04:50:08;18.20;99.90
23371;DHT22;11858;51.056;3.712;2023-08-20T04:52:34;18.30;99.90
23371;DHT22;11858;51.056;3.712;2023-08-20T04:55:01;18.30;99.90
23371;DHT22;11858;51.056;3.712;2023-08-20T04:57:26;18.20;99.90
23371;DHT22;11858;51.056;3.712;2023-08-20T04:59:52;18.40;99.90
23371;DHT22;11858;51.056;3.712;2023-08-20T05:02:18;18.40;99.90
23371;DHT22;11858;51.056;3.712;2023-08-20T05:04:44;18.40;99.90
23371;DHT22;11858;51.056;3.712;2023-08-20T05:07:10;18.40;99.90
23371;DHT22;11858;51.056;3.712;2023-08-20T05:09:35;18.40;99.90
23371;DHT22;11858;51.056;3.712;2023-08-20T05:12:02;18.40;99.90
23371;DHT22;11858;51.056;3.712;2023-08-20T05:14:28;18.40;99.90
23371;DHT22;11858;51.056;3.712;2023-08-20T05:16:54;18.40;99.90
23371;DHT22;11858;51.056;3.712;2023-08-20T05:19:20;18.40;99.90
23371;DHT22;11858;51.056;3.712;2023-08-20T05:21:46;18.40;99.90
23371;DHT22;11858;51.056;3.712;2023-08-20T05:24:11;18.40;99.90
23371;DHT22;11858;51.056;3.712;2023-08-20T05:26:37;18.30;99.90
23371;DHT22;11858;51.056;3.712;2023-08-20T05:29:03;18.30;99.90
23371;DHT22;11858;51.056;3.712;2023-08-20T05:31:28;18.30;99.90
23371;DHT22;11858;51.056;3.712;2023-08-20T05:33:54;18.40;99.90
23371;DHT22;11858;51.056;3.712;2023-08-20T05:36:19;18.40;99.90
23371;DHT22;11858;51.056;3.712;2023-08-20T05:38:45;18.40;99.90
23371;DHT22;11858;51.056;3.712;2023-08-20T05:41:11;18.50;99.90
23371;DHT22;11858;51.056;3.712;2023-08-20T05:43:36;18.50;99.90
23371;DHT22;11858;51.056;3.712;2023-08-20T05:46:02;18.50;99.90
23371;DHT22;11858;51.056;3.712;2023-08-20T05:48:28;18.60;99.90
23371;DHT22;11858;51.056;3.712;2023-08-20T05:50:55;18.60;99.90
23371;DHT22;11858;51.056;3.712;2023-08-20T05:53:22;18.70;99.90
23371;DHT22;11858;51.056;3.712;2023-08-20T05:55:47;18.80;99.90
23371;DHT22;11858;51.056;3.712;2023-08-20T05:58:13;18.90;99.90
23371;DHT22;11858;51.056;3.712;2023-08-20T06:00:39;18.90;99.90
23371;DHT22;11858;51.056;3.712;2023-08-20T06:03:04;19.10;99.90
23371;DHT22;11858;51.056;3.712;2023-08-20T06:05:31;19.10;99.90
23371;DHT22;11858;51.056;3.712;2023-08-20T06:07:56;19.10;99.90
23371;DHT22;11858;51.056;3.712;2023-08-20T06:10:22;19.40;99.90
23371;DHT22;11858;51.056;3.712;2023-08-20T06:12:47;19.40;99.90
23371;DHT22;11858;51.056;3.712;2023-08-20T06:15:14;19.40;99.90
23371;DHT22;11858;51.056;3.712;2023-08-20T06:17:40;19.50;99.90
23371;DHT22;11858;51.056;3.712;2023-08-20T06:20:06;19.50;99.90
23371;DHT22;11858;51.056;3.712;2023-08-20T06:22:34;19.60;99.90
23371;DHT22;11858;51.056;3.712;2023-08-20T06:25:00;19.70;99.90
23371;DHT22;11858;51.056;3.712;2023-08-20T06:27:25;19.80;99.90
23371;DHT22;11858;51.056;3.712;2023-08-20T06:29:51;19.90;99.90
23371;DHT22;11858;51.056;3.712;2023-08-20T06:32:17;20.10;99.90
23371;DHT22;11858;51.056;3.712;2023-08-20T06:34:42;20.20;99.90
23371;DHT22;11858;51.056;3.712;2023-08-20T06:37:08;20.30;99.90
23371;DHT22;11858;51.056;3.712;2023-08-20T06:39:34;20.20;99.90
23371;DHT22;11858;51.056;3.712;2023-08-20T06:41:59;20.30;99.90
23371;DHT22;11858;51.056;3.712;2023-08-20T06:44:25;20.40;99.90
23371;DHT22;11858;51.056;3.712;2023-08-20T06:46:51;20.60;99.90
23371;DHT22;11858;51.056;3.712;2023-08-20T06:49:17;20.80;99.90
23371;DHT22;11858;51.056;3.712;2023-08-20T06:51:42;20.80;99.90
23371;DHT22;11858;51.056;3.712;2023-08-20T06:54:08;21.00;99.90
23371;DHT22;11858;51.056;3.712;2023-08-20T06:56:34;21.00;99.90
23371;DHT22;11858;51.056;3.712;2023-08-20T06:59:00;21.20;99.90
23371;DHT22;11858;51.056;3.712;2023-08-20T07:01:28;21.40;99.90
23371;DHT22;11858;51.056;3.712;2023-08-20T07:03:53;21.70;99.90
23371;DHT22;11858;51.056;3.712;2023-08-20T07:06:19;21.70;99.90
23371;DHT22;11858;51.056;3.712;2023-08-20T07:08:44;21.80;99.90
23371;DHT22;11858;51.056;3.712;2023-08-20T07:11:10;22.00;99.90
23371;DHT22;11858;51.056;3.712;2023-08-20T07:13:36;22.10;99.90
23371;DHT22;11858;51.056;3.712;2023-08-20T07:16:02;22.20;99.90
23371;DHT22;11858;51.056;3.712;2023-08-20T07:18:28;22.20;99.90
23371;DHT22;11858;51.056;3.712;2023-08-20T07:20:55;22.30;99.90
23371;DHT22;11858;51.056;3.712;2023-08-20T07:23:21;22.40;99.90
23371;DHT22;11858;51.056;3.712;2023-08-20T07:25:47;22.30;99.90
23371;DHT22;11858;51.056;3.712;2023-08-20T07:28:14;22.30;99.90
23371;DHT22;11858;51.056;3.712;2023-08-20T07:30:40;22.20;99.90
23371;DHT22;11858;51.056;3.712;2023-08-20T07:33:06;22.30;99.90
23371;DHT22;11858;51.056;3.712;2023-08-20T07:35:32;22.50;99.90
23371;DHT22;11858;51.056;3.712;2023-08-20T07:37:58;22.50;99.90
23371;DHT22;11858;51.056;3.712;2023-08-20T07:40:23;22.40;99.90
23371;DHT22;11858;51.056;3.712;2023-08-20T07:42:49;22.40;99.90
23371;DHT22;11858;51.056;3.712;2023-08-20T07:45:16;23.00;99.90
23371;DHT22;11858;51.056;3.712;2023-08-20T07:47:41;23.50;99.90
23371;DHT22;11858;51.056;3.712;2023-08-20T07:50:07;23.90;99.90
23371;DHT22;11858;51.056;3.712;2023-08-20T07:52:33;24.40;99.90
23371;DHT22;11858;51.056;3.712;2023-08-20T07:54:59;25.10;99.90
23371;DHT22;11858;51.056;3.712;2023-08-20T07:57:25;25.70;99.90
23371;DHT22;11858;51.056;3.712;2023-08-20T07:59:51;26.40;99.90
23371;DHT22;11858;51.056;3.712;2023-08-20T08:02:17;27.10;99.90
23371;DHT22;11858;51.056;3.712;2023-08-20T08:04:43;27.60;99.90
23371;DHT22;11858;51.056;3.712;2023-08-20T08:07:10;27.70;99.90
23371;DHT22;11858;51.056;3.712;2023-08-20T08:09:36;28.10;99.90
23371;DHT22;11858;51.056;3.712;2023-08-20T08:12:02;28.30;99.90
23371;DHT22;11858;51.056;3.712;2023-08-20T08:14:28;28.90;99.90
23371;DHT22;11858;51.056;3.712;2023-08-20T08:16:54;29.60;99.90
23371;DHT22;11858;51.056;3.712;2023-08-20T08:19:20;29.80;99.90
23371;DHT22;11858;51.056;3.712;2023-08-20T08:21:46;30.00;99.90
23371;DHT22;11858;51.056;3.712;2023-08-20T08:24:12;30.10;99.90
23371;DHT22;11858;51.056;3.712;2023-08-20T08:26:39;29.90;99.90
23371;DHT22;11858;51.056;3.712;2023-08-20T08:29:05;30.60;99.90
23371;DHT22;11858;51.056;3.712;2023-08-20T08:31:32;30.80;99.90
23371;DHT22;11858;51.056;3.712;2023-08-20T08:33:58;31.30;99.90
23371;DHT22;11858;51.056;3.712;2023-08-20T08:36:24;31.80;99.90
23371;DHT22;11858;51.056;3.712;2023-08-20T08:38:54;32.10;99.90
23371;DHT22;11858;51.056;3.712;2023-08-20T08:41:22;31.70;99.90
23371;DHT22;11858;51.056;3.712;2023-08-20T08:43:51;31.60;99.90
23371;DHT22;11858;51.056;3.712;2023-08-20T08:46:17;31.40;99.90
23371;DHT22;11858;51.056;3.712;2023-08-20T08:48:45;31.80;99.90
23371;DHT22;11858;51.056;3.712;2023-08-20T08:51:13;31.90;99.90
23371;DHT22;11858;51.056;3.712;2023-08-20T08:53:39;32.60;99.90
23371;DHT22;11858;51.056;3.712;2023-08-20T08:56:04;33.60;99.90
23371;DHT22;11858;51.056;3.712;2023-08-20T08:58:33;34.50;99.90
23371;DHT22;11858;51.056;3.712;2023-08-20T09:00:59;35.10;99.90
23371;DHT22;11858;51.056;3.712;2023-08-20T09:03:25;34.60;99.90
23371;DHT22;11858;51.056;3.712;2023-08-20T09:06:01;34.00;99.90
23371;DHT22;11858;51.056;3.712;2023-08-20T09:08:32;34.40;99.90
23371;DHT22;11858;51.056;3.712;2023-08-20T09:10:58;34.80;99.90
23371;DHT22;11858;51.056;3.712;2023-08-20T09:13:25;34.20;99.90
23371;DHT22;11858;51.056;3.712;2023-08-20T09:15:54;34.80;99.90
23371;DHT22;11858;51.056;3.712;2023-08-20T09:18:20;35.00;99.90
23371;DHT22;11858;51.056;3.712;2023-08-20T09:20:48;35.30;99.90
23371;DHT22;11858;51.056;3.712;2023-08-20T09:23:17;34.70;99.90
23371;DHT22;11858;51.056;3.712;2023-08-20T09:25:43;35.30;99.90
23371;DHT22;11858;51.056;3.712;2023-08-20T09:28:09;35.30;99.90
23371;DHT22;11858;51.056;3.712;2023-08-20T09:30:35;35.70;99.90
23371;DHT22;11858;51.056;3.712;2023-08-20T09:33:07;35.60;99.90
23371;DHT22;11858;51.056;3.712;2023-08-20T09:35:32;35.80;99.90
23371;DHT22;11858;51.056;3.712;2023-08-20T09:37:59;36.00;99.90
23371;DHT22;11858;51.056;3.712;2023-08-20T09:40:27;36.30;99.90
23371;DHT22;11858;51.056;3.712;2023-08-20T09:42:54;36.30;99.90
23371;DHT22;11858;51.056;3.712;2023-08-20T09:45:28;36.20;99.90
23371;DHT22;11858;51.056;3.712;2023-08-20T09:47:55;35.50;99.90
23371;DHT22;11858;51.056;3.712;2023-08-20T09:50:22;35.60;99.90
23371;DHT22;11858;51.056;3.712;2023-08-20T09:55:21;37.20;99.90
23371;DHT22;11858;51.056;3.712;2023-08-20T09:57:48;37.50;99.90
23371;DHT22;11858;51.056;3.712;2023-08-20T10:00:14;37.40;99.90
23371;DHT22;11858;51.056;3.712;2023-08-20T10:02:43;37.40;99.90
23371;DHT22;11858;51.056;3.712;2023-08-20T10:05:10;36.50;99.90
23371;DHT22;11858;51.056;3.712;2023-08-20T10:07:37;36.10;99.90
23371;DHT22;11858;51.056;3.712;2023-08-20T10:10:05;36.10;99.90
23371;DHT22;11858;51.056;3.712;2023-08-20T10:12:31;35.80;99.90
23371;DHT22;11858;51.056;3.712;2023-08-20T10:15:00;36.90;99.90
23371;DHT22;11858;51.056;3.712;2023-08-20T10:17:29;37.50;99.90
23371;DHT22;11858;51.056;3.712;2023-08-20T10:19:57;37.40;99.90
23371;DHT22;11858;51.056;3.712;2023-08-20T10:22:42;36.70;99.90
23371;DHT22;11858;51.056;3.712;2023-08-20T10:25:12;37.20;99.90
23371;DHT22;11858;51.056;3.712;2023-08-20T10:27:46;36.80;99.90
23371;DHT22;11858;51.056;3.712;2023-08-20T10:30:32;37.00;99.90
23371;DHT22;11858;51.056;3.712;2023-08-20T10:32:58;37.00;99.90
23371;DHT22;11858;51.056;3.712;2023-08-20T10:35:29;36.20;99.90
23371;DHT22;11858;51.056;3.712;2023-08-20T10:38:16;36.80;99.60
23371;DHT22;11858;51.056;3.712;2023-08-20T10:40:54;37.30;99.90
23371;DHT22;11858;51.056;3.712;2023-08-20T10:43:37;38.00;98.90
23371;DHT22;11858;51.056;3.712;2023-08-20T10:46:08;36.90;99.40
23371;DHT22;11858;51.056;3.712;2023-08-20T10:48:35;37.20;99.20
23371;DHT22;11858;51.056;3.712;2023-08-20T10:51:13;37.60;98.50
23371;DHT22;11858;51.056;3.712;2023-08-20T10:53:41;37.10;98.90
23371;DHT22;11858;51.056;3.712;2023-08-20T10:56:16;36.90;98.10
23371;DHT22;11858;51.056;3.712;2023-08-20T10:58:47;37.00;97.90
23371;DHT22;11858;51.056;3.712;2023-08-20T11:01:22;37.60;97.70
23371;DHT22;11858;51.056;3.712;2023-08-20T11:03:49;37.80;98.20
23371;DHT22;11858;51.056;3.712;2023-08-20T11:06:16;37.90;97.00
23371;DHT22;11858;51.056;3.712;2023-08-20T11:08:42;37.20;96.50
23371;DHT22;11858;51.056;3.712;2023-08-20T11:11:09;37.80;96.50
23371;DHT22;11858;51.056;3.712;2023-08-20T11:13:35;38.00;96.20
23371;DHT22;11858;51.056;3.712;2023-08-20T11:16:05;38.20;96.70
23371;DHT22;11858;51.056;3.712;2023-08-20T11:18:34;38.50;96.00
23371;DHT22;11858;51.056;3.712;2023-08-20T11:21:01;38.80;95.80
23371;DHT22;11858;51.056;3.712;2023-08-20T11:23:28;38.90;94.90
23371;DHT22;11858;51.056;3.712;2023-08-20T11:25:53;38.30;95.00
23371;DHT22;11858;51.056;3.712;2023-08-20T11:28:20;38.10;95.10
23371;DHT22;11858;51.056;3.712;2023-08-20T11:30:46;38.00;95.00
23371;DHT22;11858;51.056;3.712;2023-08-20T11:33:12;38.20;94.90
23371;DHT22;11858;51.056;3.712;2023-08-20T11:35:38;38.20;95.20
23371;DHT22;11858;51.056;3.712;2023-08-20T11:38:04;38.20;94.70
23371;DHT22;11858;51.056;3.712;2023-08-20T11:40:30;38.80;94.30
23371;DHT22;11858;51.056;3.712;2023-08-20T11:42:55;39.00;94.10
23371;DHT22;11858;51.056;3.712;2023-08-20T11:45:21;38.30;93.60
23371;DHT22;11858;51.056;3.712;2023-08-20T11:47:47;37.90;95.00
23371;DHT22;11858;51.056;3.712;2023-08-20T11:50:12;37.70;94.70
23371;DHT22;11858;51.056;3.712;2023-08-20T11:52:39;38.30;93.90
23371;DHT22;11858;51.056;3.712;2023-08-20T11:55:05;38.30;94.00
23371;DHT22;11858;51.056;3.712;2023-08-20T11:57:32;38.20;93.80
23371;DHT22;11858;51.056;3.712;2023-08-20T12:00:03;37.00;94.00
23371;DHT22;11858;51.056;3.712;2023-08-20T12:02:40;36.50;94.30
23371;DHT22;11858;51.056;3.712;2023-08-20T12:05:06;36.40;94.90
23371;DHT22;11858;51.056;3.712;2023-08-20T12:07:32;37.10;95.20
23371;DHT22;11858;51.056;3.712;2023-08-20T12:09:57;37.50;94.60
23371;DHT22;11858;51.056;3.712;2023-08-20T12:12:23;37.90;94.20
23371;DHT22;11858;51.056;3.712;2023-08-20T12:14:49;37.70;93.90
23371;DHT22;11858;51.056;3.712;2023-08-20T12:17:18;37.60;93.70
23371;DHT22;11858;51.056;3.712;2023-08-20T12:19:44;38.10;94.10
23371;DHT22;11858;51.056;3.712;2023-08-20T12:22:10;38.20;94.40
23371;DHT22;11858;51.056;3.712;2023-08-20T12:24:36;38.90;93.40
23371;DHT22;11858;51.056;3.712;2023-08-20T12:27:01;38.60;93.00
23371;DHT22;11858;51.056;3.712;2023-08-20T12:29:29;38.90;93.00
23371;DHT22;11858;51.056;3.712;2023-08-20T12:31:55;39.10;92.50
23371;DHT22;11858;51.056;3.712;2023-08-20T12:34:21;38.80;92.60
23371;DHT22;11858;51.056;3.712;2023-08-20T12:36:48;38.00;92.70
23371;DHT22;11858;51.056;3.712;2023-08-20T12:39:13;38.00;92.70
23371;DHT22;11858;51.056;3.712;2023-08-20T12:41:39;39.00;92.60
23371;DHT22;11858;51.056;3.712;2023-08-20T12:44:05;39.30;94.20
23371;DHT22;11858;51.056;3.712;2023-08-20T12:46:31;39.80;92.10
23371;DHT22;11858;51.056;3.712;2023-08-20T12:48:56;39.40;91.40
23371;DHT22;11858;51.056;3.712;2023-08-20T12:51:22;38.70;91.60
23371;DHT22;11858;51.056;3.712;2023-08-20T12:53:48;39.00;92.70
23371;DHT22;11858;51.056;3.712;2023-08-20T12:56:14;38.80;92.00
23371;DHT22;11858;51.056;3.712;2023-08-20T12:58:41;38.50;92.80
23371;DHT22;11858;51.056;3.712;2023-08-20T13:01:06;38.60;92.10
23371;DHT22;11858;51.056;3.712;2023-08-20T13:03:32;38.70;92.20
23371;DHT22;11858;51.056;3.712;2023-08-20T13:05:58;39.40;91.90
23371;DHT22;11858;51.056;3.712;2023-08-20T13:08:25;39.90;91.20
23371;DHT22;11858;51.056;3.712;2023-08-20T13:10:54;40.20;91.10
23371;DHT22;11858;51.056;3.712;2023-08-20T13:13:20;40.80;90.40
23371;DHT22;11858;51.056;3.712;2023-08-20T13:15:47;40.10;90.10
23371;DHT22;11858;51.056;3.712;2023-08-20T13:18:12;39.60;91.20
23371;DHT22;11858;51.056;3.712;2023-08-20T13:20:39;38.90;90.60
23371;DHT22;11858;51.056;3.712;2023-08-20T13:23:05;38.90;91.80
23371;DHT22;11858;51.056;3.712;2023-08-20T13:25:31;38.80;91.00
23371;DHT22;11858;51.056;3.712;2023-08-20T13:27:56;40.00;90.60
23371;DHT22;11858;51.056;3.712;2023-08-20T13:30:22;39.60;90.30
23371;DHT22;11858;51.056;3.712;2023-08-20T13:32:48;37.80;90.50
23371;DHT22;11858;51.056;3.712;2023-08-20T13:35:14;36.40;91.60
23371;DHT22;11858;51.056;3.712;2023-08-20T13:37:40;37.10;91.90
23371;DHT22;11858;51.056;3.712;2023-08-20T13:40:06;38.60;91.80
23371;DHT22;11858;51.056;3.712;2023-08-20T13:42:34;39.20;91.10
23371;DHT22;11858;51.056;3.712;2023-08-20T13:45:00;39.60;90.60
23371;DHT22;11858;51.056;3.712;2023-08-20T13:47:26;40.50;90.20
23371;DHT22;11858;51.056;3.712;2023-08-20T13:49:51;40.50;90.10
23371;DHT22;11858;51.056;3.712;2023-08-20T13:52:17;41.30;88.90
23371;DHT22;11858;51.056;3.712;2023-08-20T13:54:43;41.10;90.20
23371;DHT22;11858;51.056;3.712;2023-08-20T13:57:09;40.00;90.20
23371;DHT22;11858;51.056;3.712;2023-08-20T13:59:34;38.70;92.80
23371;DHT22;11858;51.056;3.712;2023-08-20T14:02:00;37.20;95.20
23371;DHT22;11858;51.056;3.712;2023-08-20T14:04:25;36.40;96.40
23371;DHT22;11858;51.056;3.712;2023-08-20T14:06:51;35.80;96.90
23371;DHT22;11858;51.056;3.712;2023-08-20T14:09:17;34.40;98.50
23371;DHT22;11858;51.056;3.712;2023-08-20T14:11:44;33.60;99.90
23371;DHT22;11858;51.056;3.712;2023-08-20T14:14:10;33.10;99.90
23371;DHT22;11858;51.056;3.712;2023-08-20T14:16:36;32.90;99.90
23371;DHT22;11858;51.056;3.712;2023-08-20T14:19:01;32.10;99.90
23371;DHT22;11858;51.056;3.712;2023-08-20T14:21:27;31.80;99.90
23371;DHT22;11858;51.056;3.712;2023-08-20T14:23:53;31.70;99.90
23371;DHT22;11858;51.056;3.712;2023-08-20T14:26:18;31.70;99.90
23371;DHT22;11858;51.056;3.712;2023-08-20T14:28:44;31.70;99.90
23371;DHT22;11858;51.056;3.712;2023-08-20T14:31:10;31.50;99.90
23371;DHT22;11858;51.056;3.712;2023-08-20T14:33:36;32.00;99.90
23371;DHT22;11858;51.056;3.712;2023-08-20T14:36:02;32.90;99.90
23371;DHT22;11858;51.056;3.712;2023-08-20T14:38:31;33.70;99.90
23371;DHT22;11858;51.056;3.712;2023-08-20T14:41:00;35.00;99.90
23371;DHT22;11858;51.056;3.712;2023-08-20T14:43:27;35.40;99.90
23371;DHT22;11858;51.056;3.712;2023-08-20T14:45:53;35.90;99.90
23371;DHT22;11858;51.056;3.712;2023-08-20T14:48:19;36.30;99.90
23371;DHT22;11858;51.056;3.712;2023-08-20T14:50:45;36.30;99.90
23371;DHT22;11858;51.056;3.712;2023-08-20T14:53:11;37.10;99.90
23371;DHT22;11858;51.056;3.712;2023-08-20T14:55:37;36.80;99.90
23371;DHT22;11858;51.056;3.712;2023-08-20T14:58:02;37.50;99.90
23371;DHT22;11858;51.056;3.712;2023-08-20T15:00:32;37.40;99.90
23371;DHT22;11858;51.056;3.712;2023-08-20T15:02:57;37.40;99.90
23371;DHT22;11858;51.056;3.712;2023-08-20T15:05:23;38.00;99.90
23371;DHT22;11858;51.056;3.712;2023-08-20T15:07:49;38.30;99.90
23371;DHT22;11858;51.056;3.712;2023-08-20T15:10:14;37.00;99.90
23371;DHT22;11858;51.056;3.712;2023-08-20T15:12:40;36.60;99.90
23371;DHT22;11858;51.056;3.712;2023-08-20T15:15:07;37.20;99.90
23371;DHT22;11858;51.056;3.712;2023-08-20T15:17:34;36.70;99.90
23371;DHT22;11858;51.056;3.712;2023-08-20T15:20:00;36.90;99.90
23371;DHT22;11858;51.056;3.712;2023-08-20T15:22:25;37.20;99.80
23371;DHT22;11858;51.056;3.712;2023-08-20T15:24:51;36.90;99.90
23371;DHT22;11858;51.056;3.712;2023-08-20T15:27:17;36.60;99.90
23371;DHT22;11858;51.056;3.712;2023-08-20T15:29:43;37.10;99.70
23371;DHT22;11858;51.056;3.712;2023-08-20T15:32:10;37.60;99.20
23371;DHT22;11858;51.056;3.712;2023-08-20T15:34:35;36.90;99.00
23371;DHT22;11858;51.056;3.712;2023-08-20T15:37:01;36.70;98.80